createdAt,value
2018-06-21T00:01:08.825Z,98395.60
2018-06-21T00:03:37.274Z,98393.66
2018-06-21T00:06:05.688Z,98389.36
2018-06-21T00:08:34.156Z,98392.72
2018-06-21T00:11:02.528Z,98389.86
2018-06-21T00:13:31.021Z,98390.31
2018-06-21T00:15:59.428Z,98383.83
2018-06-21T00:18:27.869Z,98383.43
2018-06-21T00:20:56.392Z,98377.42
2018-06-21T00:23:24.889Z,98379.03
2018-06-21T00:25:53.559Z,98374.16
2018-06-21T00:28:22.174Z,98376.65
2018-06-21T00:30:50.699Z,98371.50
2018-06-21T00:33:19.120Z,98380.50
2018-06-21T00:35:47.577Z,98378.37
2018-06-21T00:38:16.037Z,98373.16
2018-06-21T00:40:44.458Z,98369.70
2018-06-21T00:43:12.971Z,98374.30
2018-06-21T00:45:41.465Z,98366.58
2018-06-21T00:48:09.918Z,98369.13
2018-06-21T00:50:38.356Z,98368.77
2018-06-21T00:53:06.697Z,98372.27
2018-06-21T00:55:46.457Z,98377.03
2018-06-21T00:58:14.911Z,98370.83
2018-06-21T01:00:43.259Z,98367.30
2018-06-21T01:03:11.701Z,98370.45
2018-06-21T01:05:40.170Z,98368.94
2018-06-21T01:08:08.640Z,98366.45
2018-06-21T01:10:37.063Z,98368.05
2018-06-21T01:13:05.687Z,98367.17
2018-06-21T01:15:34.092Z,98374.61
2018-06-21T01:18:02.467Z,98365.41
2018-06-21T01:20:30.884Z,98366.94
2018-06-21T01:22:59.273Z,98358.99
2018-06-21T01:25:27.816Z,98361.95
2018-06-21T01:27:56.291Z,98365.00
2018-06-21T01:30:24.629Z,98361.73
2018-06-21T01:32:53.175Z,98357.51
2018-06-21T01:35:21.651Z,98354.09
2018-06-21T01:37:49.931Z,98354.35
2018-06-21T01:40:18.266Z,98351.94
2018-06-21T01:42:46.660Z,98346.78
2018-06-21T01:45:15.075Z,98350.86
2018-06-21T01:47:43.392Z,98343.55
2018-06-21T01:50:11.800Z,98348.30
2018-06-21T01:52:40.155Z,98349.48
2018-06-21T01:55:08.575Z,98342.22
2018-06-21T01:57:36.919Z,98346.37
2018-06-21T02:00:05.395Z,98339.87
2018-06-21T02:02:33.794Z,98336.86
2018-06-21T02:05:02.178Z,98345.25
2018-06-21T02:07:30.487Z,98341.61
2018-06-21T02:09:58.922Z,98340.09
2018-06-21T02:12:27.243Z,98330.09
2018-06-21T02:14:55.633Z,98331.25
2018-06-21T02:17:24.006Z,98329.13
2018-06-21T02:19:52.367Z,98326.84
2018-06-21T02:22:20.673Z,98316.78
2018-06-21T02:24:49.761Z,98321.62
2018-06-21T02:27:18.112Z,98324.36
2018-06-21T02:29:46.558Z,98321.17
2018-06-21T02:32:14.925Z,98313.16
2018-06-21T02:34:43.228Z,98315.61
2018-06-21T02:37:11.694Z,98318.17
2018-06-21T02:39:40.077Z,98312.19
2018-06-21T02:42:08.428Z,98307.55
2018-06-21T02:44:36.732Z,98313.69
2018-06-21T02:47:05.307Z,98310.34
2018-06-21T02:49:34.441Z,98308.64
2018-06-21T02:52:02.862Z,98306.59
2018-06-21T02:54:31.318Z,98309.27
2018-06-21T02:56:59.688Z,98306.59
2018-06-21T02:59:28.006Z,98307.18
2018-06-21T03:01:57.040Z,98307.00
2018-06-21T03:04:25.424Z,98301.84
2018-06-21T03:06:53.838Z,98300.35
2018-06-21T03:09:22.254Z,98292.22
2018-06-21T03:11:50.587Z,98296.41
2018-06-21T03:14:18.940Z,98294.21
2018-06-21T03:16:47.275Z,98293.73
2018-06-21T03:19:15.694Z,98291.80
2018-06-21T03:21:44.149Z,98296.34
2018-06-21T03:24:12.522Z,98300.76
2018-06-21T03:26:40.833Z,98299.73
2018-06-21T03:29:09.173Z,98298.29
2018-06-21T03:31:37.947Z,98299.85
2018-06-21T03:34:06.510Z,98303.30
2018-06-21T03:36:34.994Z,98306.90
2018-06-21T03:39:03.659Z,98303.00
2018-06-21T03:41:31.998Z,98303.00
2018-06-21T03:44:00.334Z,98297.50
2018-06-21T03:46:28.680Z,98301.44
2018-06-21T03:48:57.032Z,98297.73
2018-06-21T03:51:25.412Z,98302.84
2018-06-21T03:53:53.862Z,98307.25
2018-06-21T03:56:22.184Z,98307.63
2018-06-21T03:58:50.554Z,98318.84
2018-06-21T04:01:18.946Z,98324.55
2018-06-21T04:03:47.257Z,98323.93
2018-06-21T04:06:15.659Z,98324.98
2018-06-21T04:08:44.066Z,98318.61
2018-06-21T04:11:12.501Z,98318.46
2018-06-21T04:13:41.539Z,98319.03
2018-06-21T04:16:10.458Z,98315.30
2018-06-21T04:18:38.803Z,98322.69
2018-06-21T04:21:09.183Z,98319.77
2018-06-21T04:23:37.591Z,98323.03
2018-06-21T04:26:06.779Z,98317.13
2018-06-21T04:28:35.723Z,98321.95
2018-06-21T04:31:06.218Z,98329.71
2018-06-21T04:33:35.690Z,98332.13
2018-06-21T04:36:04.149Z,98324.56
2018-06-21T04:38:32.452Z,98324.63
2018-06-21T04:41:00.742Z,98319.88
2018-06-21T04:43:29.149Z,98321.03
2018-06-21T04:45:57.536Z,98321.97
2018-06-21T04:48:25.854Z,98321.55
2018-06-21T04:50:54.318Z,98321.42
2018-06-21T04:53:22.607Z,98310.72
2018-06-21T04:55:50.993Z,98315.05
2018-06-21T04:58:19.329Z,98307.72
2018-06-21T05:00:47.708Z,98308.38
2018-06-21T05:03:16.325Z,98310.00
2018-06-21T05:05:45.463Z,98312.95
2018-06-21T05:08:13.857Z,98308.44
2018-06-21T05:10:42.406Z,98308.90
2018-06-21T05:13:10.929Z,98309.77
2018-06-21T05:15:39.355Z,98309.91
2018-06-21T05:18:07.778Z,98308.06
2018-06-21T05:20:37.420Z,98310.78
2018-06-21T05:23:05.977Z,98311.21
2018-06-21T05:25:34.387Z,98310.06
2018-06-21T05:28:02.704Z,98306.46
2018-06-21T05:30:31.157Z,98311.08
2018-06-21T05:32:59.718Z,98306.63
2018-06-21T05:35:28.098Z,98311.53
2018-06-21T05:37:57.238Z,98317.33
2018-06-21T05:40:33.708Z,98315.68
2018-06-21T05:43:02.752Z,98314.88
2018-06-21T05:45:31.176Z,98317.74
2018-06-21T05:48:02.080Z,98311.76
2018-06-21T05:50:31.634Z,98307.77
2018-06-21T05:53:00.429Z,98306.23
2018-06-21T05:55:29.655Z,98310.77
2018-06-21T05:57:58.068Z,98313.12
2018-06-21T06:00:26.393Z,98311.17
2018-06-21T06:02:54.757Z,98314.77
2018-06-21T06:05:22.988Z,98315.38
2018-06-21T06:07:51.651Z,98315.48
2018-06-21T06:10:20.246Z,98308.14
2018-06-21T06:12:48.774Z,98311.41
2018-06-21T06:15:17.014Z,98311.30
2018-06-21T06:17:45.466Z,98312.31
2018-06-21T06:20:13.857Z,98303.38
2018-06-21T06:22:42.269Z,98304.60
2018-06-21T06:25:10.824Z,98309.34
2018-06-21T06:27:39.133Z,98311.06
2018-06-21T06:30:07.948Z,98306.28
2018-06-21T06:32:36.397Z,98305.64
2018-06-21T06:35:04.686Z,98299.23
2018-06-21T06:37:33.046Z,98293.91
2018-06-21T06:40:01.346Z,98300.23
2018-06-21T06:42:29.764Z,98292.80
2018-06-21T06:44:58.065Z,98293.41
2018-06-21T06:47:26.827Z,98288.25
2018-06-21T06:49:55.161Z,98285.20
2018-06-21T06:52:23.699Z,98280.88
2018-06-21T06:54:52.140Z,98288.86
2018-06-21T06:57:20.408Z,98286.23
2018-06-21T06:59:48.704Z,98283.29
2018-06-21T07:02:17.214Z,98282.29
2018-06-21T07:04:45.597Z,98287.25
2018-06-21T07:07:13.965Z,98281.85
2018-06-21T07:09:42.454Z,98276.72
2018-06-21T07:12:10.736Z,98273.30
2018-06-21T07:14:39.052Z,98278.11
2018-06-21T07:17:07.520Z,98275.58
2018-06-21T07:19:35.809Z,98274.80
2018-06-21T07:22:04.209Z,98274.28
2018-06-21T07:24:32.556Z,98275.62
2018-06-21T07:27:00.978Z,98274.94
2018-06-21T07:29:29.265Z,98269.47
2018-06-21T07:31:57.666Z,98277.05
2018-06-21T07:34:25.986Z,98272.42
2018-06-21T07:36:54.390Z,98272.45
2018-06-21T07:39:22.724Z,98269.90
2018-06-21T07:41:51.184Z,98271.13
2018-06-21T07:44:19.449Z,98262.67
2018-06-21T07:46:47.797Z,98265.38
2018-06-21T07:49:16.182Z,98265.67
2018-06-21T07:51:44.589Z,98267.94
2018-06-21T07:54:12.931Z,98273.34
2018-06-21T07:56:41.549Z,98279.03
2018-06-21T07:59:10.124Z,98273.41
2018-06-21T08:01:38.497Z,98281.27
2018-06-21T08:04:06.925Z,98278.33
2018-06-21T08:06:35.312Z,98273.94
2018-06-21T08:09:04.561Z,98277.36
2018-06-21T08:11:32.857Z,98278.92
2018-06-21T08:14:01.176Z,98273.15
2018-06-21T08:16:29.548Z,98275.34
2018-06-21T08:18:57.945Z,98288.35
2018-06-21T08:21:26.330Z,98279.47
2018-06-21T08:23:54.606Z,98285.08
2018-06-21T08:26:22.933Z,98286.52
2018-06-21T08:28:51.342Z,98292.93
2018-06-21T08:31:19.657Z,98293.44
2018-06-21T08:33:48.587Z,98290.92
2018-06-21T08:36:17.163Z,98293.55
2018-06-21T08:38:45.459Z,98299.39
2018-06-21T08:41:13.765Z,98304.57
2018-06-21T08:43:42.152Z,98318.86
2018-06-21T08:46:10.583Z,98313.41
2018-06-21T08:48:38.895Z,98308.97
2018-06-21T08:51:07.393Z,98311.92
2018-06-21T08:53:35.767Z,98314.95
2018-06-21T08:56:04.229Z,98308.86
2018-06-21T08:58:32.618Z,98309.36
2018-06-21T09:01:00.969Z,98321.53
2018-06-21T09:03:29.435Z,98326.91
2018-06-21T09:05:57.776Z,98327.41
2018-06-21T09:08:26.118Z,98326.81
2018-06-21T09:10:54.417Z,98322.41
2018-06-21T09:13:22.812Z,98328.02
2018-06-21T09:15:51.058Z,98325.34
2018-06-21T09:18:19.389Z,98313.15
2018-06-21T09:20:47.877Z,98316.29
2018-06-21T09:23:16.169Z,98323.86
2018-06-21T09:25:44.572Z,98327.41
2018-06-21T09:28:12.820Z,98327.88
2018-06-21T09:30:41.127Z,98340.35
2018-06-21T09:33:09.604Z,98337.14
2018-06-21T09:35:38.048Z,98333.89
2018-06-21T09:38:14.778Z,98329.84
2018-06-21T09:40:48.559Z,98345.89
2018-06-21T09:43:22.225Z,98344.80
2018-06-21T09:45:55.920Z,98339.42
2018-06-21T09:48:31.720Z,98340.03
2018-06-21T09:51:01.069Z,98346.74
2018-06-21T09:53:29.948Z,98351.28
2018-06-21T09:55:59.557Z,98351.75
2018-06-21T09:58:27.968Z,98359.97
2018-06-21T10:01:02.929Z,98359.98
2018-06-21T10:03:31.802Z,98363.10
2018-06-21T10:06:00.076Z,98357.41
2018-06-21T10:08:28.617Z,98361.18
2018-06-21T10:10:56.977Z,98363.20
2018-06-21T10:13:25.283Z,98367.33
2018-06-21T10:15:54.082Z,98364.67
2018-06-21T10:18:22.352Z,98359.95
2018-06-21T10:20:50.927Z,98366.58
2018-06-21T10:23:19.257Z,98360.36
2018-06-21T10:25:47.645Z,98364.63
2018-06-21T10:28:15.971Z,98363.34
2018-06-21T10:30:44.246Z,98351.59
2018-06-21T10:33:12.671Z,98353.20
2018-06-21T10:35:41.036Z,98352.18
2018-06-21T10:38:09.343Z,98347.74
2018-06-21T10:40:37.636Z,98351.13
2018-06-21T10:43:06.251Z,98347.00
2018-06-21T10:45:34.823Z,98338.58
2018-06-21T10:48:04.253Z,98345.33
2018-06-21T10:50:32.582Z,98349.91
2018-06-21T10:53:00.932Z,98341.09
2018-06-21T10:55:29.357Z,98334.66
2018-06-21T10:57:57.673Z,98347.27
2018-06-21T11:00:26.053Z,98340.11
2018-06-21T11:02:54.409Z,98348.88
2018-06-21T11:05:22.742Z,98341.20
2018-06-21T11:07:51.197Z,98340.44
2018-06-21T11:10:20.056Z,98341.61
2018-06-21T11:12:48.411Z,98338.09
2018-06-21T11:15:16.690Z,98342.16
2018-06-21T11:17:45.044Z,98345.05
2018-06-21T11:20:13.350Z,98343.30
2018-06-21T11:22:41.850Z,98337.09
2018-06-21T11:25:10.139Z,98336.89
2018-06-21T11:27:38.472Z,98343.27
2018-06-21T11:30:07.477Z,98341.58
2018-06-21T11:32:35.816Z,98331.02
2018-06-21T11:35:04.291Z,98335.97
2018-06-21T11:37:32.525Z,98331.20
2018-06-21T11:40:00.939Z,98334.25
2018-06-21T11:42:29.298Z,98336.38
2018-06-21T11:44:57.623Z,98328.70
2018-06-21T11:47:25.974Z,98336.12
2018-06-21T11:49:55.660Z,98325.22
2018-06-21T11:52:23.975Z,98316.41
2018-06-21T11:54:52.289Z,98309.84
2018-06-21T11:57:20.742Z,98323.38
2018-06-21T11:59:49.275Z,98316.32
2018-06-21T12:02:17.553Z,98320.77
2018-06-21T12:04:45.910Z,98312.67
2018-06-21T12:07:15.449Z,98312.94
2018-06-21T12:09:43.780Z,98311.58
2018-06-21T12:12:12.308Z,98304.20
2018-06-21T12:14:40.669Z,98302.75
2018-06-21T12:17:08.957Z,98317.90
2018-06-21T12:19:37.280Z,98295.06
2018-06-21T12:22:05.974Z,98298.93
2018-06-21T12:24:34.244Z,98295.03
2018-06-21T12:27:02.625Z,98288.41
2018-06-21T12:29:30.972Z,98308.43
2018-06-21T12:31:59.964Z,98300.91
2018-06-21T12:34:28.317Z,98290.52
2018-06-21T12:36:56.873Z,98289.66
2018-06-21T12:39:25.199Z,98290.90
2018-06-21T12:41:53.575Z,98284.72
2018-06-21T12:44:22.309Z,98286.95
2018-06-21T12:46:50.621Z,98283.52
2018-06-21T12:49:18.984Z,98278.72
2018-06-21T12:51:47.271Z,98286.30
2018-06-21T12:54:15.748Z,98292.39
2018-06-21T12:56:44.024Z,98283.12
2018-06-21T12:59:12.295Z,98274.53
2018-06-21T13:01:40.720Z,98291.20
2018-06-21T13:04:09.201Z,98279.52
2018-06-21T13:06:37.452Z,98295.36
2018-06-21T13:09:17.224Z,98300.61
2018-06-21T13:12:58.984Z,98289.72
2018-06-21T13:15:27.522Z,98298.28
2018-06-21T13:17:55.970Z,98293.70
2018-06-21T13:20:24.474Z,98306.30
2018-06-21T13:22:52.746Z,98291.86
2018-06-21T13:25:21.039Z,98294.39
2018-06-21T13:27:49.285Z,98293.75
2018-06-21T13:30:17.533Z,98281.33
2018-06-21T13:32:45.761Z,98290.29
2018-06-21T13:35:14.295Z,98286.78
2018-06-21T13:37:42.732Z,98280.94
2018-06-21T13:40:11.050Z,98289.11
2018-06-21T13:42:39.319Z,98279.05
2018-06-21T13:45:07.759Z,98285.85
2018-06-21T13:47:36.518Z,98288.97
2018-06-21T13:50:05.826Z,98292.08
2018-06-21T13:52:34.354Z,98289.16
2018-06-21T13:55:02.865Z,98298.16
2018-06-21T13:57:31.228Z,98303.13
2018-06-21T13:59:59.502Z,98320.87
2018-06-21T14:02:27.828Z,98330.25
2018-06-21T14:04:56.245Z,98315.75
2018-06-21T14:13:20.676Z,98335.68
2018-06-21T14:15:49.746Z,98331.84
2018-06-21T14:18:18.440Z,98341.92
2018-06-21T14:20:47.794Z,98346.47
2018-06-21T14:23:16.812Z,98358.76
2018-06-21T14:25:45.254Z,98358.83
2018-06-21T14:28:13.506Z,98358.80
2018-06-21T14:30:42.001Z,98364.93
2018-06-21T14:33:10.352Z,98380.31
2018-06-21T14:35:39.257Z,98372.05
2018-06-21T14:38:07.965Z,98371.11
2018-06-21T14:40:36.267Z,98369.51
2018-06-21T14:43:04.621Z,98377.60
2018-06-21T14:45:33.068Z,98369.37
2018-06-21T14:48:01.866Z,98378.66
2018-06-21T14:50:30.240Z,98390.70
2018-06-21T14:52:58.519Z,98391.13
2018-06-21T14:55:27.277Z,98392.23
2018-06-21T14:57:55.613Z,98389.50
2018-06-21T15:00:23.912Z,98387.55
2018-06-21T15:02:52.181Z,98378.02
2018-06-21T15:05:20.598Z,98374.66
2018-06-21T15:07:49.787Z,98383.33
2018-06-21T15:10:18.151Z,98371.97
2018-06-21T15:12:46.447Z,98374.59
2018-06-21T15:15:14.883Z,98377.00
2018-06-21T15:17:43.354Z,98377.41
2018-06-21T15:20:11.720Z,98381.98
2018-06-21T15:22:40.042Z,98378.73
2018-06-21T15:25:08.325Z,98381.05
2018-06-21T15:27:36.836Z,98384.50
2018-06-21T15:30:06.317Z,98384.34
2018-06-21T15:32:34.675Z,98384.64
2018-06-21T15:35:03.293Z,98377.71
2018-06-21T15:37:32.333Z,98385.66
2018-06-21T15:40:00.753Z,98380.34
2018-06-21T15:42:29.133Z,98378.99
2018-06-21T15:44:57.509Z,98384.41
2018-06-21T15:47:27.829Z,98381.89
2018-06-21T15:49:56.201Z,98394.38
2018-06-21T15:52:28.047Z,98393.63
2018-06-21T15:54:56.363Z,98396.62
2018-06-21T15:57:25.296Z,98403.64
2018-06-21T15:59:54.971Z,98395.02
2018-06-21T16:02:23.239Z,98395.64
2018-06-21T16:04:52.744Z,98399.37
2018-06-21T16:07:21.256Z,98394.88
2018-06-21T16:09:50.108Z,98400.91
2018-06-21T16:12:18.652Z,98393.42
2018-06-21T16:14:47.173Z,98391.24
2018-06-21T16:17:15.543Z,98392.86
2018-06-21T16:19:44.740Z,98390.61
2018-06-21T16:22:13.908Z,98390.72
2018-06-21T16:24:42.466Z,98386.38
2018-06-21T16:27:10.917Z,98391.17
2018-06-21T16:29:39.313Z,98394.84
2018-06-21T16:32:07.817Z,98392.45
2018-06-21T16:34:36.285Z,98404.37
2018-06-21T16:37:04.884Z,98405.00
2018-06-21T16:39:33.275Z,98409.09
2018-06-21T16:42:01.805Z,98406.78
2018-06-21T16:44:31.021Z,98405.33
2018-06-21T16:46:59.429Z,98405.00
2018-06-21T16:49:27.840Z,98405.67
2018-06-21T16:51:56.130Z,98412.53
2018-06-21T16:54:25.497Z,98407.17
2018-06-21T16:56:54.545Z,98408.23
2018-06-21T16:59:25.066Z,98416.40
2018-06-21T17:01:56.231Z,98414.59
2018-06-21T17:04:26.021Z,98415.59
2018-06-21T17:06:54.443Z,98414.63
2018-06-21T17:09:22.901Z,98440.38
2018-06-21T17:11:52.640Z,98428.28
2018-06-21T17:14:21.661Z,98423.69
2018-06-21T17:16:50.335Z,98429.11
2018-06-21T17:19:18.657Z,98423.97
2018-06-21T17:21:47.096Z,98425.41
2018-06-21T17:24:15.755Z,98413.23
2018-06-21T17:26:44.166Z,98425.96
2018-06-21T17:29:12.592Z,98428.44
2018-06-21T17:31:41.586Z,98423.55
2018-06-21T17:34:10.661Z,98423.42
2018-06-21T17:36:39.316Z,98422.27
2018-06-21T17:39:09.123Z,98429.45
2018-06-21T17:41:37.683Z,98440.55
2018-06-21T17:44:06.230Z,98442.89
2018-06-21T17:46:34.809Z,98450.52
2018-06-21T17:49:03.284Z,98447.30
2018-06-21T17:51:31.690Z,98455.27
2018-06-21T17:54:00.634Z,98460.69
2018-06-21T17:56:29.517Z,98461.08
2018-06-21T17:58:57.963Z,98466.14
2018-06-21T18:01:26.317Z,98475.48
2018-06-21T18:03:54.646Z,98458.72
2018-06-21T18:06:23.022Z,98470.58
2018-06-21T18:08:51.655Z,98477.48
2018-06-21T18:11:20.056Z,98484.15
2018-06-21T18:13:48.676Z,98491.16
2018-06-21T18:16:17.170Z,98504.70
2018-06-21T18:18:45.899Z,98507.31
2018-06-21T18:21:14.283Z,98509.17
2018-06-21T18:23:43.229Z,98516.51
2018-06-21T18:26:11.858Z,98520.24
2018-06-21T18:28:40.806Z,98520.69
2018-06-21T18:31:09.573Z,98533.89
2018-06-21T18:33:39.557Z,98540.71
2018-06-21T18:36:07.892Z,98540.13
2018-06-21T18:38:36.254Z,98549.14
2018-06-21T18:41:04.573Z,98558.24
2018-06-21T18:43:33.315Z,98551.77
2018-06-21T18:46:01.973Z,98553.22
2018-06-21T18:48:30.408Z,98576.25
2018-06-21T18:50:59.376Z,98575.73
2018-06-21T18:53:27.970Z,98579.44
2018-06-21T18:56:02.159Z,98579.24
2018-06-21T18:58:30.471Z,98585.95
2018-06-21T19:00:58.922Z,98593.17
2018-06-21T19:03:27.357Z,98607.95
2018-06-21T19:05:56.116Z,98608.86
2018-06-21T19:08:29.809Z,98611.16
2018-06-21T19:11:03.672Z,98615.23
2018-06-21T19:13:32.128Z,98624.95
2018-06-21T19:16:01.085Z,98625.58
2018-06-21T19:18:29.670Z,98626.73
2018-06-21T19:20:58.829Z,98623.50
2018-06-21T19:23:27.353Z,98629.77
2018-06-21T19:25:56.066Z,98631.39
2018-06-21T19:28:24.439Z,98635.55
2018-06-21T19:30:55.441Z,98646.58
2018-06-21T19:33:23.890Z,98660.18
2018-06-21T19:35:52.293Z,98657.81
2018-06-21T19:38:20.748Z,98679.86
2018-06-21T19:40:49.276Z,98680.34
2018-06-21T19:43:17.825Z,98680.27
2018-06-21T19:45:46.100Z,98688.59
2018-06-21T19:48:14.458Z,98704.17
2018-06-21T19:50:42.818Z,98702.20
2018-06-21T19:53:11.192Z,98708.58
2018-06-21T19:55:40.003Z,98722.48
2018-06-21T19:58:08.486Z,98718.53
2018-06-21T20:00:37.869Z,98724.27
2018-06-21T20:03:08.800Z,98723.33
2018-06-21T20:05:37.358Z,98742.89
2018-06-21T20:08:05.828Z,98740.99
2018-06-21T20:10:34.469Z,98739.36
2018-06-21T20:13:02.900Z,98753.01
2018-06-21T20:15:38.513Z,98756.59
2018-06-21T20:18:07.107Z,98754.78
2018-06-21T20:20:36.267Z,98763.59
2018-06-21T20:23:04.784Z,98776.23
2018-06-21T20:25:33.351Z,98777.25
2018-06-21T20:28:01.775Z,98784.30
2018-06-21T20:30:30.181Z,98792.31
2018-06-21T20:32:58.649Z,98791.92
2018-06-21T20:35:27.384Z,98796.77
2018-06-21T20:37:55.865Z,98798.96
2018-06-21T20:40:25.239Z,98800.78
2018-06-21T20:42:54.321Z,98802.77
2018-06-21T20:45:23.328Z,98811.23
2018-06-21T20:47:53.783Z,98811.55
2018-06-21T20:50:22.269Z,98814.41
2018-06-21T20:52:50.788Z,98816.73
2018-06-21T20:55:19.208Z,98815.93
2018-06-21T20:57:49.246Z,98828.03
2018-06-21T21:00:19.819Z,98827.65
2018-06-21T21:02:49.451Z,98832.92
2018-06-21T21:05:19.214Z,98837.87
2018-06-21T21:07:49.785Z,98846.66
2018-06-21T21:10:19.992Z,98846.12
2018-06-21T21:12:49.404Z,98847.80
2018-06-21T21:15:18.448Z,98857.92
2018-06-21T21:17:47.891Z,98853.30
2018-06-21T21:20:17.106Z,98862.44
2018-06-21T21:22:46.604Z,98870.61
2018-06-21T21:25:16.193Z,98871.30
2018-06-21T21:27:46.997Z,98875.70
2018-06-21T21:30:19.054Z,98879.12
2018-06-21T21:33:43.059Z,98885.49
2018-06-21T21:36:18.030Z,98891.28
2018-06-21T21:38:51.108Z,98897.66
2018-06-21T21:41:22.088Z,98895.56
2018-06-21T21:43:50.822Z,98902.98
2018-06-21T21:46:20.672Z,98910.95
2018-06-21T21:48:50.055Z,98908.89
2018-06-21T21:51:20.563Z,98912.22
2018-06-21T21:53:49.912Z,98921.22
2018-06-21T21:56:18.812Z,98921.43
2018-06-21T21:58:48.259Z,98918.30
2018-06-21T22:01:17.645Z,98930.86
2018-06-21T22:03:46.746Z,98934.17
2018-06-21T22:06:16.734Z,98943.23
2018-06-21T22:08:45.877Z,98947.10
2018-06-21T22:11:16.350Z,98949.11
2018-06-21T22:13:46.070Z,98947.96
2018-06-21T22:16:23.026Z,98948.83
2018-06-21T22:18:54.131Z,98952.71
2018-06-21T22:21:23.199Z,98952.98
2018-06-21T22:23:52.149Z,98949.60
2018-06-21T22:26:21.142Z,98954.69
2018-06-21T22:28:49.848Z,98956.26
2018-06-21T22:31:18.721Z,98954.64
2018-06-21T22:33:47.653Z,98962.28
2018-06-21T22:36:18.141Z,98968.00
2018-06-21T22:38:47.049Z,98962.57
2018-06-21T22:41:17.410Z,98968.14
2018-06-21T22:43:46.628Z,98961.33
2018-06-21T22:46:15.387Z,98966.49
2018-06-21T22:48:44.213Z,98968.59
2018-06-21T22:51:12.893Z,98967.98
2018-06-21T22:53:41.455Z,98968.93
2018-06-21T22:56:10.448Z,98964.48
2018-06-21T22:58:39.479Z,98966.58
2018-06-21T23:01:08.236Z,98969.10
2018-06-21T23:03:37.902Z,98971.86
2018-06-21T23:06:07.143Z,98967.34
2018-06-21T23:08:36.125Z,98963.93
2018-06-21T23:11:05.149Z,98967.27
2018-06-21T23:13:35.605Z,98974.41
2018-06-21T23:16:04.428Z,98978.29
2018-06-21T23:18:45.408Z,98972.78
2018-06-21T23:21:14.673Z,98983.84
2018-06-21T23:23:43.771Z,98976.94
2018-06-21T23:26:13.331Z,98990.94
2018-06-21T23:28:42.690Z,98979.80
2018-06-21T23:31:11.716Z,98991.08
2018-06-21T23:33:42.421Z,98988.96
2018-06-21T23:36:11.952Z,98990.39
2018-06-21T23:38:41.042Z,98993.42
2018-06-21T23:41:09.767Z,98997.14
2018-06-21T23:43:39.005Z,99001.67
2018-06-21T23:46:08.192Z,99009.28
2018-06-21T23:48:37.730Z,99006.18
2018-06-21T23:51:06.634Z,99004.99
2018-06-21T23:53:35.570Z,99008.66
2018-06-21T23:56:04.805Z,99003.10
2018-06-21T23:58:33.656Z,99009.64
